createdAt,value
2022-12-15T00:01:32.533Z,100568.41
2022-12-15T00:04:36.427Z,100569.97
2022-12-15T00:07:40.361Z,100548.03
2022-12-15T00:10:44.202Z,100578.94
2022-12-15T00:13:48.140Z,100554.00
2022-12-15T00:16:52.039Z,100575.91
2022-12-15T00:19:55.691Z,100578.69
2022-12-15T00:23:00.610Z,100581.38
2022-12-15T00:26:04.393Z,100577.06
2022-12-15T00:29:08.159Z,100574.94
2022-12-15T00:32:11.792Z,100579.56
2022-12-15T00:35:15.706Z,100575.78
2022-12-15T00:38:31.678Z,100576.81
2022-12-15T00:41:18.337Z,100574.25
2022-12-15T00:44:03.672Z,100546.38
2022-12-15T00:46:54.650Z,100578.63
2022-12-15T00:49:58.513Z,100583.84
2022-12-15T00:53:02.361Z,100582.78
2022-12-15T00:56:06.140Z,100579.41
2022-12-15T00:59:11.135Z,100566.75
2022-12-15T01:02:14.925Z,100560.78
2022-12-15T01:05:18.735Z,100585.75
2022-12-15T01:08:22.789Z,100590.06
2022-12-15T01:11:26.841Z,100586.97
2022-12-15T01:14:30.769Z,100598.69
2022-12-15T01:17:35.226Z,100589.94
2022-12-15T01:20:20.453Z,100591.47
2022-12-15T01:23:05.813Z,100586.34
2022-12-15T01:25:52.540Z,100580.84
2022-12-15T01:28:37.527Z,100576.00
2022-12-15T01:31:22.849Z,100596.41
2022-12-15T01:34:07.702Z,100607.38
2022-12-15T01:36:52.834Z,100598.84
2022-12-15T01:39:56.751Z,100608.91
2022-12-15T01:42:42.405Z,100609.97
2022-12-15T01:45:27.640Z,100612.31
2022-12-15T01:48:17.744Z,100603.00
2022-12-15T01:51:14.973Z,100591.16
2022-12-15T01:54:00.349Z,100590.53
2022-12-15T01:56:58.921Z,100615.34
2022-12-15T01:59:51.642Z,100600.13
2022-12-15T02:02:40.440Z,100615.75
2022-12-15T02:05:28.404Z,100614.88
2022-12-15T02:08:13.896Z,100614.72
2022-12-15T02:11:18.621Z,100603.97
2022-12-15T02:14:09.172Z,100617.56
2022-12-15T02:17:03.959Z,100628.75
2022-12-15T02:20:13.802Z,100629.66
2022-12-15T02:23:04.769Z,100628.00
2022-12-15T02:26:14.700Z,100637.31
2022-12-15T02:29:13.219Z,100639.66
2022-12-15T02:32:30.923Z,100645.47
2022-12-15T02:35:26.143Z,100641.47
2022-12-15T02:38:12.167Z,100638.34
2022-12-15T02:40:59.389Z,100639.31
2022-12-15T02:43:44.678Z,100621.59
2022-12-15T02:46:58.351Z,100644.44
2022-12-15T02:49:58.733Z,100639.38
2022-12-15T02:53:14.323Z,100643.75
2022-12-15T02:56:19.141Z,100638.53
2022-12-15T02:59:17.551Z,100609.03
2022-12-15T03:02:06.717Z,100622.50
2022-12-15T03:04:52.614Z,100628.53
2022-12-15T03:07:37.412Z,100633.72
2022-12-15T03:10:25.762Z,100635.41
2022-12-15T03:13:10.565Z,100628.53
2022-12-15T03:15:55.842Z,100627.75
2022-12-15T03:18:41.111Z,100627.78
2022-12-15T03:21:26.419Z,100627.91
2022-12-15T03:24:11.698Z,100628.69
2022-12-15T03:26:56.827Z,100629.50
2022-12-15T03:29:41.970Z,100638.03
2022-12-15T03:32:28.341Z,100631.88
2022-12-15T03:35:13.780Z,100625.13
2022-12-15T03:37:58.973Z,100639.72
2022-12-15T03:40:44.477Z,100630.97
2022-12-15T03:43:29.990Z,100616.66
2022-12-15T03:46:15.428Z,100620.22
2022-12-15T03:49:00.809Z,100625.47
2022-12-15T03:51:46.244Z,100649.22
2022-12-15T03:54:31.545Z,100642.47
2022-12-15T03:57:16.421Z,100633.09
2022-12-15T04:00:01.832Z,100627.38
2022-12-15T04:02:50.067Z,100635.72
2022-12-15T04:05:36.055Z,100620.44
2022-12-15T04:08:26.700Z,100642.53
2022-12-15T04:11:11.946Z,100639.25
2022-12-15T04:13:57.086Z,100647.88
2022-12-15T04:16:42.145Z,100626.78
2022-12-15T04:19:45.822Z,100620.81
2022-12-15T04:22:30.996Z,100642.03
2022-12-15T04:25:37.589Z,100651.28
2022-12-15T04:28:41.551Z,100651.38
2022-12-15T04:31:48.311Z,100637.81
2022-12-15T04:34:52.158Z,100628.50
2022-12-15T04:37:56.193Z,100619.31
2022-12-15T04:40:59.901Z,100649.03
2022-12-15T04:44:03.567Z,100622.78
2022-12-15T04:47:07.406Z,100637.38
2022-12-15T04:50:11.174Z,100651.78
2022-12-15T04:53:14.989Z,100646.75
2022-12-15T04:56:18.998Z,100654.88
2022-12-15T04:59:23.155Z,100640.50
2022-12-15T05:02:27.134Z,100648.25
2022-12-15T05:05:30.981Z,100646.56
2022-12-15T05:08:34.883Z,100654.44
2022-12-15T05:11:38.938Z,100656.28
2022-12-15T05:14:42.986Z,100638.28
2022-12-15T05:17:47.852Z,100653.53
2022-12-15T05:20:51.928Z,100635.09
2022-12-15T05:23:55.735Z,100655.44
2022-12-15T05:26:59.580Z,100650.47
2022-12-15T05:30:03.543Z,100635.97
2022-12-15T05:32:49.928Z,100617.44
2022-12-15T05:35:35.339Z,100612.22
2022-12-15T05:38:20.445Z,100652.13
2022-12-15T05:41:05.795Z,100654.03
2022-12-15T05:43:50.874Z,100636.38
2022-12-15T05:46:36.617Z,100657.56
2022-12-15T05:49:24.411Z,100653.31
2022-12-15T05:52:09.552Z,100664.38
2022-12-15T05:54:54.801Z,100637.88
2022-12-15T05:57:39.972Z,100658.19
2022-12-15T06:00:25.100Z,100659.00
2022-12-15T06:03:10.353Z,100653.97
2022-12-15T06:05:56.701Z,100650.56
2022-12-15T06:08:42.737Z,100659.16
2022-12-15T06:11:27.759Z,100651.56
2022-12-15T06:14:13.251Z,100664.28
2022-12-15T06:16:59.996Z,100654.84
2022-12-15T06:19:45.301Z,100670.09
2022-12-15T06:22:30.568Z,100664.06
2022-12-15T06:25:15.872Z,100649.56
2022-12-15T06:28:01.968Z,100655.63
2022-12-15T06:30:47.695Z,100673.78
2022-12-15T06:33:33.786Z,100673.09
2022-12-15T06:36:20.190Z,100677.41
2022-12-15T06:39:08.284Z,100656.22
2022-12-15T06:41:53.580Z,100681.00
2022-12-15T06:44:38.746Z,100683.59
2022-12-15T06:47:23.893Z,100676.66
2022-12-15T06:50:09.699Z,100695.34
2022-12-15T06:52:54.871Z,100677.50
2022-12-15T06:55:41.553Z,100672.44
2022-12-15T06:58:27.756Z,100686.78
2022-12-15T07:01:13.048Z,100705.38
2022-12-15T07:04:03.084Z,100695.19
2022-12-15T07:06:49.194Z,100708.81
2022-12-15T07:09:34.489Z,100686.00
2022-12-15T07:12:19.504Z,100715.81
2022-12-15T07:15:05.350Z,100702.06
2022-12-15T07:17:51.058Z,100699.41
2022-12-15T07:20:36.303Z,100712.00
2022-12-15T07:23:39.684Z,100708.59
2022-12-15T07:26:27.125Z,100674.75
2022-12-15T07:29:12.321Z,100706.81
2022-12-15T07:31:57.722Z,100700.16
2022-12-15T07:34:43.036Z,100722.47
2022-12-15T07:37:29.913Z,100728.63
2022-12-15T07:40:15.050Z,100737.00
2022-12-15T07:43:01.006Z,100712.44
2022-12-15T07:45:51.883Z,100720.03
2022-12-15T07:48:37.081Z,100727.69
2022-12-15T07:51:22.787Z,100723.50
2022-12-15T07:54:11.385Z,100724.50
2022-12-15T07:56:56.456Z,100720.47
2022-12-15T07:59:42.278Z,100745.16
2022-12-15T08:02:27.477Z,100745.28
2022-12-15T08:05:12.568Z,100726.75
2022-12-15T08:07:58.605Z,100748.78
2022-12-15T08:10:43.563Z,100745.44
2022-12-15T08:14:00.906Z,100758.19
2022-12-15T08:16:34.522Z,100754.94
2022-12-15T08:19:19.875Z,100761.63
2022-12-15T08:22:05.150Z,100774.44
2022-12-15T08:24:50.146Z,100771.88
2022-12-15T08:27:35.800Z,100737.16
2022-12-15T08:30:21.690Z,100772.81
2022-12-15T08:33:06.974Z,100779.59
2022-12-15T08:35:58.332Z,100779.59
2022-12-15T08:38:44.765Z,100769.41
2022-12-15T08:41:32.006Z,100789.78
2022-12-15T08:44:17.362Z,100776.91
2022-12-15T08:47:02.792Z,100787.91
2022-12-15T08:49:48.641Z,100792.16
2022-12-15T08:52:34.839Z,100798.97
2022-12-15T08:55:22.526Z,100798.16
2022-12-15T08:58:07.637Z,100805.84
2022-12-15T09:00:52.905Z,100798.81
2022-12-15T09:03:38.981Z,100801.81
2022-12-15T09:06:30.862Z,100785.94
2022-12-15T09:09:16.021Z,100809.00
2022-12-15T09:12:01.120Z,100811.59
2022-12-15T09:14:46.440Z,100820.03
2022-12-15T09:17:31.521Z,100822.59
2022-12-15T09:20:18.073Z,100826.00
2022-12-15T09:23:03.337Z,100821.59
2022-12-15T09:25:48.317Z,100837.63
2022-12-15T09:28:33.988Z,100821.56
2022-12-15T09:31:25.378Z,100821.72
2022-12-15T09:34:15.347Z,100837.81
2022-12-15T09:37:00.301Z,100833.53
2022-12-15T09:39:45.332Z,100844.47
2022-12-15T09:42:31.879Z,100839.13
2022-12-15T09:45:26.137Z,100840.75
2022-12-15T09:48:18.711Z,100838.25
2022-12-15T09:51:04.930Z,100835.44
2022-12-15T09:53:55.116Z,100835.31
2022-12-15T09:56:58.160Z,100850.63
2022-12-15T10:00:01.762Z,100851.63
2022-12-15T10:03:25.002Z,100854.91
2022-12-15T10:06:32.899Z,100852.09
2022-12-15T10:09:22.451Z,100852.00
2022-12-15T10:12:25.299Z,100862.25
2022-12-15T10:15:41.371Z,100851.97
2022-12-15T10:18:39.929Z,100853.34
2022-12-15T10:21:28.179Z,100860.81
2022-12-15T10:27:36.416Z,100846.19
2022-12-15T10:30:21.982Z,100846.91
2022-12-15T10:33:22.771Z,100844.28
2022-12-15T10:36:14.283Z,100842.38
2022-12-15T10:38:59.285Z,100838.00
2022-12-15T10:41:44.321Z,100842.13
2022-12-15T10:44:38.982Z,100844.38
2022-12-15T10:47:28.210Z,100844.91
2022-12-15T10:50:25.603Z,100827.06
2022-12-15T10:53:38.595Z,100841.03
2022-12-15T10:56:33.584Z,100843.38
2022-12-15T10:59:36.433Z,100856.03
2022-12-15T11:02:24.246Z,100847.25
2022-12-15T11:05:16.389Z,100853.16
2022-12-15T11:08:16.654Z,100829.25
2022-12-15T11:11:26.113Z,100833.38
2022-12-15T11:14:18.047Z,100847.44
2022-12-15T11:17:07.012Z,100839.44
2022-12-15T11:20:03.551Z,100834.00
2022-12-15T11:22:57.251Z,100834.78
2022-12-15T11:25:53.639Z,100822.63
2022-12-15T11:29:02.678Z,100828.31
2022-12-15T11:31:48.990Z,100825.41
2022-12-15T11:34:38.094Z,100819.13
2022-12-15T11:37:34.018Z,100830.06
2022-12-15T11:40:35.783Z,100821.22
2022-12-15T11:43:26.864Z,100810.91
2022-12-15T11:46:18.927Z,100818.38
2022-12-15T11:49:20.401Z,100819.72
2022-12-15T11:52:40.611Z,100817.59
2022-12-15T11:55:44.619Z,100812.19
2022-12-15T11:59:08.717Z,100817.84
2022-12-15T12:02:28.156Z,100787.34
2022-12-15T12:05:41.598Z,100816.31
2022-12-15T12:08:54.225Z,100810.63
2022-12-15T12:11:55.253Z,100805.19
2022-12-15T12:15:02.162Z,100809.50
2022-12-15T12:17:55.447Z,100810.16
2022-12-15T12:20:50.673Z,100812.81
2022-12-15T12:23:52.452Z,100806.75
2022-12-15T12:26:51.859Z,100798.41
2022-12-15T12:29:53.106Z,100792.50
2022-12-15T12:32:50.715Z,100787.84
2022-12-15T12:35:45.589Z,100792.91
2022-12-15T12:38:37.247Z,100795.81
2022-12-15T12:41:31.567Z,100796.75
2022-12-15T12:44:30.976Z,100789.69
2022-12-15T12:47:36.026Z,100777.78
2022-12-15T12:50:25.856Z,100784.28
2022-12-15T12:53:27.267Z,100765.81
2022-12-15T12:56:33.416Z,100777.44
2022-12-15T12:59:30.623Z,100777.91
2022-12-15T13:02:15.556Z,100766.53
2022-12-15T13:05:21.352Z,100766.78
2022-12-15T13:08:06.349Z,100764.06
2022-12-15T13:10:54.227Z,100757.28
2022-12-15T13:13:51.024Z,100761.31
2022-12-15T13:19:57.153Z,100754.44
2022-12-15T13:22:42.287Z,100748.28
2022-12-15T13:25:35.689Z,100743.09
2022-12-15T13:28:36.037Z,100744.25
2022-12-15T13:31:28.968Z,100735.97
2022-12-15T13:34:20.871Z,100750.97
2022-12-15T13:37:26.202Z,100758.69
2022-12-15T13:40:35.800Z,100755.72
2022-12-15T13:43:26.795Z,100723.78
2022-12-15T13:46:20.273Z,100745.72
2022-12-15T13:49:16.025Z,100737.97
2022-12-15T13:52:04.012Z,100724.50
2022-12-15T13:55:01.778Z,100737.28
2022-12-15T13:58:02.150Z,100734.69
2022-12-15T14:00:55.939Z,100727.97
2022-12-15T14:04:16.452Z,100711.19
2022-12-15T14:07:03.128Z,100725.69
2022-12-15T14:09:50.263Z,100732.53
2022-12-15T14:12:39.558Z,100725.78
2022-12-15T14:15:31.531Z,100730.81
2022-12-15T14:18:32.077Z,100693.00
2022-12-15T14:21:26.981Z,100690.38
2022-12-15T14:24:42.504Z,100716.00
2022-12-15T14:27:30.922Z,100715.56
2022-12-15T14:30:22.322Z,100689.84
2022-12-15T14:33:15.058Z,100703.25
2022-12-15T14:36:01.069Z,100709.31
2022-12-15T14:39:00.090Z,100721.47
2022-12-15T14:41:50.629Z,100718.97
2022-12-15T14:44:39.712Z,100727.72
2022-12-15T14:47:33.803Z,100729.38
2022-12-15T14:53:28.321Z,100738.97
2022-12-15T14:56:13.690Z,100738.22
2022-12-15T14:59:04.426Z,100738.03
2022-12-15T15:01:58.794Z,100744.13
2022-12-15T15:03:05.362Z,100758.09
2022-12-15T15:03:06.093Z,100741.56
2022-12-15T15:04:56.692Z,100745.16
2022-12-15T15:07:45.485Z,100747.16
2022-12-15T15:10:30.927Z,100747.22
2022-12-15T15:13:20.623Z,100729.78
2022-12-15T15:16:13.006Z,100746.94
2022-12-15T15:19:02.450Z,100746.09
2022-12-15T15:21:47.924Z,100731.78
2022-12-15T15:24:37.291Z,100746.91
2022-12-15T15:27:26.864Z,100761.59
2022-12-15T15:30:23.827Z,100742.00
2022-12-15T15:33:09.995Z,100749.25
2022-12-15T15:35:57.629Z,100733.81
2022-12-15T15:38:46.575Z,100747.66
2022-12-15T15:41:33.003Z,100745.91
2022-12-15T15:44:18.128Z,100742.50
2022-12-15T15:47:04.348Z,100726.53
2022-12-15T15:49:50.923Z,100730.13
2022-12-15T15:52:35.966Z,100753.03
2022-12-15T15:55:29.508Z,100733.78
2022-12-15T15:58:17.030Z,100758.72
2022-12-15T16:01:03.829Z,100752.75
2022-12-15T16:03:51.780Z,100734.94
2022-12-15T16:06:39.770Z,100729.91
2022-12-15T16:09:28.544Z,100753.47
2022-12-15T16:12:29.578Z,100744.97
2022-12-15T16:15:17.944Z,100744.06
2022-12-15T16:18:03.477Z,100756.84
2022-12-15T16:20:51.717Z,100752.59
2022-12-15T16:23:37.493Z,100759.75
2022-12-15T16:26:29.134Z,100767.50
2022-12-15T16:29:15.444Z,100758.59
2022-12-15T16:32:00.354Z,100762.63
2022-12-15T16:34:45.738Z,100766.81
2022-12-15T16:37:34.802Z,100768.13
2022-12-15T16:40:26.144Z,100757.22
2022-12-15T16:43:17.386Z,100774.84
2022-12-15T16:46:02.408Z,100771.75
2022-12-15T16:48:47.718Z,100755.09
2022-12-15T16:51:39.110Z,100755.19
2022-12-15T16:54:27.347Z,100780.44
2022-12-15T16:57:12.317Z,100780.28
2022-12-15T16:59:57.597Z,100772.47
2022-12-15T17:02:42.919Z,100763.25
2022-12-15T17:05:32.376Z,100777.69
2022-12-15T17:08:21.196Z,100775.41
2022-12-15T17:11:07.179Z,100791.66
2022-12-15T17:13:56.038Z,100788.63
2022-12-15T17:16:41.446Z,100789.44
2022-12-15T17:19:26.735Z,100788.78
2022-12-15T17:22:15.569Z,100798.94
2022-12-15T17:25:00.581Z,100798.38
2022-12-15T17:27:46.361Z,100799.44
2022-12-15T17:30:31.651Z,100810.41
2022-12-15T17:33:19.305Z,100776.28
2022-12-15T17:36:15.394Z,100816.81
2022-12-15T17:39:01.445Z,100821.16
2022-12-15T17:42:02.638Z,100817.97
2022-12-15T17:44:49.129Z,100821.59
2022-12-15T17:47:36.791Z,100827.75
2022-12-15T17:50:21.671Z,100822.72
2022-12-15T17:53:07.036Z,100819.13
2022-12-15T17:55:54.115Z,100826.81
2022-12-15T17:58:39.862Z,100814.13
2022-12-15T18:01:25.207Z,100834.56
2022-12-15T18:04:10.712Z,100836.63
2022-12-15T18:07:01.604Z,100823.19
2022-12-15T18:09:48.545Z,100828.41
2022-12-15T18:12:35.329Z,100845.19
2022-12-15T18:15:23.781Z,100846.00
2022-12-15T18:18:08.769Z,100837.25
2022-12-15T18:21:00.284Z,100824.44
2022-12-15T18:23:47.526Z,100806.56
2022-12-15T18:26:37.788Z,100847.13
2022-12-15T18:29:22.876Z,100847.13
2022-12-15T18:32:09.479Z,100851.44
2022-12-15T18:34:55.035Z,100854.00
2022-12-15T18:37:40.127Z,100840.44
2022-12-15T18:40:28.259Z,100857.50
2022-12-15T18:43:16.560Z,100858.16
2022-12-15T18:46:01.695Z,100853.00
2022-12-15T18:48:46.949Z,100863.78
2022-12-15T18:51:32.239Z,100839.59
2022-12-15T18:54:20.959Z,100867.78
2022-12-15T18:57:28.910Z,100863.06
2022-12-15T19:00:14.136Z,100869.06
2022-12-15T19:03:00.397Z,100875.03
2022-12-15T19:05:46.954Z,100872.47
2022-12-15T19:08:36.039Z,100851.28
2022-12-15T19:11:30.988Z,100866.56
2022-12-15T19:14:36.428Z,100862.44
2022-12-15T19:17:41.589Z,100878.94
2022-12-15T19:20:45.770Z,100890.00
2022-12-15T19:23:31.402Z,100885.19
2022-12-15T19:26:16.811Z,100885.94
2022-12-15T19:29:02.086Z,100881.22
2022-12-15T19:31:47.921Z,100896.31
2022-12-15T19:34:33.592Z,100894.50
2022-12-15T19:37:27.976Z,100903.06
2022-12-15T19:40:22.124Z,100903.59
2022-12-15T19:43:07.189Z,100893.50
2022-12-15T19:45:53.192Z,100898.88
2022-12-15T19:48:38.305Z,100888.91
2022-12-15T19:51:24.154Z,100894.72
2022-12-15T19:54:17.095Z,100895.41
2022-12-15T19:57:02.050Z,100901.47
2022-12-15T19:59:47.209Z,100884.25
2022-12-15T20:02:32.589Z,100905.44
2022-12-15T20:05:19.484Z,100912.25
2022-12-15T20:08:05.067Z,100907.88
2022-12-15T20:10:50.866Z,100922.59
2022-12-15T20:13:36.215Z,100914.03
2022-12-15T20:16:22.054Z,100897.97
2022-12-15T20:19:07.247Z,100922.59
2022-12-15T20:21:52.367Z,100923.31
2022-12-15T20:24:37.660Z,100925.91
2022-12-15T20:27:22.587Z,100921.59
2022-12-15T20:30:16.395Z,100905.53
2022-12-15T20:33:03.899Z,100923.31
2022-12-15T20:35:50.340Z,100926.72
2022-12-15T20:38:36.073Z,100930.16
2022-12-15T20:41:24.025Z,100925.06
2022-12-15T20:44:12.911Z,100936.19
2022-12-15T20:46:58.324Z,100915.94
2022-12-15T20:49:43.760Z,100939.63
2022-12-15T20:52:29.394Z,100938.81
2022-12-15T20:55:14.709Z,100944.22
2022-12-15T20:57:59.778Z,100949.44
2022-12-15T21:00:46.442Z,100936.53
2022-12-15T21:03:34.932Z,100954.50
2022-12-15T21:06:20.942Z,100949.22
2022-12-15T21:09:11.988Z,100949.22
2022-12-15T21:11:58.379Z,100953.44
2022-12-15T21:14:43.476Z,100957.84
2022-12-15T21:17:28.776Z,100964.75
2022-12-15T21:20:14.192Z,100960.41
2022-12-15T21:22:59.578Z,100963.75
2022-12-15T21:25:45.668Z,100971.53
2022-12-15T21:28:30.818Z,100969.84
2022-12-15T21:31:17.279Z,100965.72
2022-12-15T21:34:02.346Z,100974.38
2022-12-15T21:36:51.719Z,100975.22
2022-12-15T21:39:37.552Z,100971.00
2022-12-15T21:42:22.851Z,100977.22
2022-12-15T21:45:19.753Z,100975.69
2022-12-15T21:48:23.128Z,100981.75
2022-12-15T21:51:13.408Z,100986.09
2022-12-15T21:53:59.019Z,100987.06
2022-12-15T21:56:45.534Z,100971.88
2022-12-15T21:59:32.608Z,100977.00
2022-12-15T22:02:26.809Z,100997.50
2022-12-15T22:05:23.557Z,101003.69
2022-12-15T22:08:20.353Z,101002.84
2022-12-15T22:11:12.116Z,100986.81
2022-12-15T22:14:00.766Z,101008.91
2022-12-15T22:16:45.560Z,101005.59
2022-12-15T22:19:30.662Z,101009.19
2022-12-15T22:22:16.571Z,101012.72
2022-12-15T22:25:01.612Z,101016.94
2022-12-15T22:27:47.896Z,101016.09
2022-12-15T22:30:33.104Z,101013.44
2022-12-15T22:33:23.873Z,101015.94
2022-12-15T22:36:09.092Z,101008.31
2022-12-15T22:38:54.142Z,101012.75
2022-12-15T22:41:43.681Z,101018.94
2022-12-15T22:44:34.604Z,101024.09
2022-12-15T22:47:19.859Z,101023.56
2022-12-15T22:50:07.045Z,101034.75
2022-12-15T22:52:52.765Z,101038.22
2022-12-15T22:55:41.241Z,101026.91
2022-12-15T22:58:36.892Z,101030.38
2022-12-15T23:01:22.148Z,101025.38
2022-12-15T23:04:07.574Z,101034.22
2022-12-15T23:06:52.992Z,101047.03
2022-12-15T23:09:40.283Z,101034.16
2022-12-15T23:12:25.211Z,101044.47
2022-12-15T23:15:29.255Z,101053.06
2022-12-15T23:18:14.717Z,101047.03
2022-12-15T23:20:59.698Z,101047.09
2022-12-15T23:23:45.048Z,101050.63
2022-12-15T23:26:30.194Z,101053.13
2022-12-15T23:29:15.503Z,101054.81
2022-12-15T23:32:00.653Z,101052.19
2022-12-15T23:34:45.868Z,101049.72
2022-12-15T23:37:31.355Z,101046.47
2022-12-15T23:40:21.347Z,101057.50
2022-12-15T23:43:06.194Z,101067.03
2022-12-15T23:46:00.184Z,101045.06
2022-12-15T23:48:45.426Z,101060.34
2022-12-15T23:51:30.496Z,101016.91
2022-12-15T23:54:15.671Z,101071.31
2022-12-15T23:57:01.078Z,101037.47
2022-12-15T23:59:46.317Z,101064.66
